Anaheim, California
Current Conditions -  °F | °C
As of 10:53 PM on Wednesday 22 Oct 2014 (Local Time) from KFUL Reporting Station
Clear Clear  
Wind Chill: 67°   Ceiling: Unl
Heat Index: 67°   Visibility: 10mi
Dew Point: 58°   Wind: 0mph
Humidity: 73%   Direction: NA
Pressure: 29.95"   Gusts: NA
Location:  33.83°N, 117.91°W
Report Text: KFUL 230553Z 00000KT 10SM CLR 19/14 A2995 RMK AO2 SLP142 T01940144 10272 20194 51012 $
Loading
Personal Weather Stations






























Interactive Weather Map
Tropical Storm Tracking
New forecast layout! Learn more

10-Day Weather Forecast

Advertisements
Track Severe Weather on mobile